XA83 weather

South Padre Island Heliport
South Padre Island, Texas, United States

Public forecast

Using degrees Fahrenheit for public forecast. Weather courtesy of forecast.io.

Closest aviation weather report (METAR) to South Padre Island Heliport

Closest report is Port Isabel Cameron County Airport, 10.8 nm (20.1 km) WNW. Retrieved 2019/10/17 08:34 UTC (24 minutes ago):

KPIL 170834Z AUTO 33015KT 10SM BKN013 OVC080 19/13 A2996 RMK AO2 T01890133

Closest aviation forecast (TAF) to South Padre Island Heliport

Closest forecast is Brownsville South Padre Island International Airport, 17.7 nm (32.8 km) SW. Retrieved 2019/10/17 06:42 UTC (2 hours ago):

TAF KBRO 170539Z 1706/1806 33013G18KT P6SM VCSH OVC015 TEMPO 1708/1712 P6SM SHRA OVC007 FM171200 34012KT P6SM VCSH OVC020